Blocher, Indiana
Current Conditions -  °F | °C
As of 10:53 AM on Friday 31 Oct 2014 (Local Time) from KLOU Reporting Station
Broken Clouds Broken Clouds  
Wind Chill: 51°   Ceiling: 5000
Heat Index: 51°   Visibility: 10mi
Dew Point: 43°   Wind: 7mph
Humidity: 74%   Direction: 290°WNW
Pressure: 30.01"   Gusts: NA
Location:  38.6522°N, 85.6465°W
Report Text: KLOU 311453Z 29006KT 10SM SCT042 BKN050 11/06 A3001 RMK AO2 SLP161 T01060061 50000
Loading
Personal Weather Stations






























Interactive Weather Map
Tropical Storm Tracking
New forecast layout! Learn more

10-Day Weather Forecast

Advertisements
Track Severe Weather on mobile